Time;durP1;ratioP1;P1;durP2;ratioP2;P2;SDS_P1;SDS_P2;PMS_P1;PMS_P2;Temp;Humidity;BMP_temperature;BMP_pressure;BME280_temperature;BME280_humidity;BME280_pressure;Samples;Min_cycle;Max_cycle;Signal;HPM_P1;HPM_P2
2020/03/29 00:00:51;;;;;;;21.6;11.95;;;;;;;5.68;64.56445;95101.45;;;;
2020/03/29 00:03:17;;;;;;;21.6;11.95;;;;;;;5.68;64.56445;95101.45;;;;
2020/03/29 00:04:35;;;;;;;19.9;11.25;;;;;;;5.11;63.52539;95101.23;;;;
2020/03/29 00:09:14;;;;;;;18.75;12.15;;;;;;;5.05;64.42676;95094.14;;;;
2020/03/29 00:10:54;;;;;;;24.25;13.65;;;;;;;5.05;65.13672;95101.25;;;;
2020/03/29 00:17:33;;;;;;;22.15;13.3;;;;;;;5.03;66.54395;95106.81;;;;
2020/03/29 00:23:50;;;;;;;22.15;13.3;;;;;;;5.03;66.54395;95106.81;;;;
2020/03/29 00:25:59;;;;;;;22.15;13.3;;;;;;;5.03;66.54395;95106.81;;;;
2020/03/29 00:28:49;;;;;;;24;13;;;;;;;4.61;65.26172;95104.08;;;;
2020/03/29 00:29:56;;;;;;;24;13;;;;;;;4.61;65.26172;95104.08;;;;
2020/03/29 00:31:22;;;;;;;21.75;13.95;;;;;;;4.59;66.13574;95100.41;;;;
2020/03/29 00:32:32;;;;;;;21.75;13.95;;;;;;;4.59;66.13574;95100.41;;;;
2020/03/29 00:33:37;;;;;;;21.75;13.95;;;;;;;4.59;66.13574;95100.41;;;;
2020/03/29 00:34:46;;;;;;;21.75;13.95;;;;;;;4.59;66.13574;95100.41;;;;
2020/03/29 00:35:54;;;;;;;21.75;13.95;;;;;;;4.59;66.13574;95100.41;;;;
2020/03/29 00:37:00;;;;;;;21.75;13.95;;;;;;;4.59;66.13574;95100.41;;;;
2020/03/29 00:38:06;;;;;;;21.75;13.95;;;;;;;4.59;66.13574;95100.41;;;;
2020/03/29 00:39:09;;;;;;;21.75;13.95;;;;;;;4.59;66.13574;95100.41;;;;
2020/03/29 00:44:43;;;;;;;24;14.85;;;;;;;4.51;66.00781;95094.31;;;;
2020/03/29 00:45:44;;;;;;;24;14.85;;;;;;;4.51;66.00781;95094.31;;;;
2020/03/29 00:46:44;;;;;;;26.1;15.3;;;;;;;4.62;66.61621;95091.97;;;;
2020/03/29 00:47:45;;;;;;;26.1;15.3;;;;;;;4.62;66.61621;95091.97;;;;
2020/03/29 00:48:49;;;;;;;26.1;15.3;;;;;;;4.62;66.61621;95091.97;;;;
2020/03/29 00:49:51;;;;;;;23.6;16.25;;;;;;;4.71;67.08594;95093.84;;;;
2020/03/29 00:50:52;;;;;;;23.6;16.25;;;;;;;4.71;67.08594;95093.84;;;;
2020/03/29 00:51:56;;;;;;;23.6;16.25;;;;;;;4.71;67.08594;95093.84;;;;
2020/03/29 00:52:57;;;;;;;23.6;16.25;;;;;;;4.71;67.08594;95093.84;;;;
2020/03/29 00:53:57;;;;;;;23.6;16.25;;;;;;;4.71;67.08594;95093.84;;;;
2020/03/29 00:54:58;;;;;;;23.6;16.25;;;;;;;4.71;67.08594;95093.84;;;;
2020/03/29 00:55:58;;;;;;;23.6;16.25;;;;;;;4.71;67.08594;95093.84;;;;
2020/03/29 00:56:59;;;;;;;23.6;16.25;;;;;;;4.71;67.08594;95093.84;;;;
2020/03/29 00:58:01;;;;;;;23.6;16.25;;;;;;;4.71;67.08594;95093.84;;;;
2020/03/29 00:59:01;;;;;;;23.6;16.25;;;;;;;4.71;67.08594;95093.84;;;;
2020/03/29 01:00:02;;;;;;;32.2;15.45;;;;;;;4.55;65.69727;95083;;;;
2020/03/29 01:01:04;;;;;;;32.2;15.45;;;;;;;4.55;65.69727;95083;;;;
2020/03/29 01:02:53;;;;;;;23.5;16.45;;;;;;;4.59;66.53809;95081.69;;;;
2020/03/29 01:14:11;;;;;;;26.35;16.75;;;;;;;4.61;65.38867;95087.54;;;;
2020/03/29 01:16:28;;;;;;;23.25;17.3;;;;;;;4.68;66.19434;95079.93;;;;
2020/03/29 01:20:11;;;;;;;23.25;17.3;;;;;;;4.68;66.19434;95079.93;;;;
2020/03/29 01:22:44;;;;;;;23.25;17.3;;;;;;;4.68;66.19434;95079.93;;;;
2020/03/29 01:28:32;;;;;;;24.85;18.35;;;;;;;4.76;65.00977;95075.73;;;;
2020/03/29 01:34:18;;;;;;;28.85;19.9;;;;;;;4.82;65.80176;95072.75;;;;
2020/03/29 01:41:33;;;;;;;28.55;19.2;;;;;;;4.78;64.86328;95067.5;;;;
2020/03/29 01:42:51;;;;;;;26.55;20.25;;;;;;;4.82;65.73828;95065.65;;;;
2020/03/29 01:44:32;;;;;;;26.55;20.25;;;;;;;4.82;65.73828;95065.65;;;;
2020/03/29 01:45:56;;;;;;;26.55;20.25;;;;;;;4.82;65.73828;95065.65;;;;
2020/03/29 01:47:26;;;;;;;26.55;20.25;;;;;;;4.82;65.73828;95065.65;;;;
2020/03/29 01:48:59;;;;;;;26.55;20.25;;;;;;;4.82;65.73828;95065.65;;;;
2020/03/29 01:54:21;;;;;;;28.8;19.55;;;;;;;4.73;64.94043;95060.08;;;;
2020/03/29 01:55:51;;;;;;;26.55;19.2;;;;;;;4.77;65.88965;95052.37;;;;
2020/03/29 02:01:33;;;;;;;26.55;19.2;;;;;;;4.77;65.88965;95052.37;;;;
2020/03/29 02:03:16;;;;;;;26.55;19.2;;;;;;;4.77;65.88965;95052.37;;;;
2020/03/29 02:05:11;;;;;;;26.55;19.2;;;;;;;4.77;65.88965;95052.37;;;;
2020/03/29 02:07:12;;;;;;;27.8;19.15;;;;;;;4.78;65.1709;95040.25;;;;
2020/03/29 02:08:33;;;;;;;27.8;19.15;;;;;;;4.78;65.1709;95040.25;;;;
2020/03/29 02:10:31;;;;;;;28.8;20.35;;;;;;;4.86;66.07227;95051.23;;;;
2020/03/29 02:12:31;;;;;;;28.8;20.35;;;;;;;4.86;66.07227;95051.23;;;;
2020/03/29 02:18:11;;;;;;;28.8;20.35;;;;;;;4.86;66.07227;95051.23;;;;
2020/03/29 02:20:13;;;;;;;27.4;19.95;;;;;;;4.98;65.10547;95048.67;;;;
2020/03/29 02:21:51;;;;;;;27.4;19.95;;;;;;;4.98;65.10547;95048.67;;;;
2020/03/29 02:23:25;;;;;;;27.6;20.55;;;;;;;5.08;65.94629;95044.64;;;;
2020/03/29 02:25:22;;;;;;;27.6;20.55;;;;;;;5.08;65.94629;95044.64;;;;
2020/03/29 02:26:52;;;;;;;27.6;20.55;;;;;;;5.08;65.94629;95044.64;;;;
2020/03/29 02:28:37;;;;;;;27.6;20.55;;;;;;;5.08;65.94629;95044.64;;;;
2020/03/29 02:30:22;;;;;;;27.6;20.55;;;;;;;5.08;65.94629;95044.64;;;;
2020/03/29 02:36:01;;;;;;;27.25;21.8;;;;;;;5.3;65.50391;95048.3;;;;
2020/03/29 02:37:23;;;;;;;27.25;21.8;;;;;;;5.3;65.50391;95048.3;;;;
2020/03/29 02:38:59;;;;;;;27.25;21.8;;;;;;;5.3;65.50391;95048.3;;;;
2020/03/29 02:41:56;;;;;;;27.25;21.8;;;;;;;5.3;65.50391;95048.3;;;;
2020/03/29 02:43:48;;;;;;;27.25;21.8;;;;;;;5.3;65.50391;95048.3;;;;
2020/03/29 02:44:56;;;;;;;27.25;21.8;;;;;;;5.3;65.50391;95048.3;;;;
2020/03/29 02:46:45;;;;;;;26.9;21.45;;;;;;;5.24;64.57324;95037.92;;;;
2020/03/29 02:47:52;;;;;;;26.9;21.45;;;;;;;5.24;64.57324;95037.92;;;;
2020/03/29 02:48:56;;;;;;;31.4;23.6;;;;;;;5.23;65.32324;95038.55;;;;
2020/03/29 02:52:15;;;;;;;31.4;23.6;;;;;;;5.23;65.32324;95038.55;;;;
2020/03/29 02:53:28;;;;;;;31.4;23.6;;;;;;;5.23;65.32324;95038.55;;;;
2020/03/29 02:54:41;;;;;;;31.4;23.6;;;;;;;5.23;65.32324;95038.55;;;;
2020/03/29 02:55:48;;;;;;;31.4;23.6;;;;;;;5.23;65.32324;95038.55;;;;
2020/03/29 02:56:56;;;;;;;31.4;23.6;;;;;;;5.23;65.32324;95038.55;;;;
2020/03/29 02:58:09;;;;;;;31.4;23.6;;;;;;;5.23;65.32324;95038.55;;;;
2020/03/29 02:59:26;;;;;;;30;21.2;;;;;;;4.91;64.87207;95034.99;;;;
2020/03/29 03:00:33;;;;;;;30;21.2;;;;;;;4.91;64.87207;95034.99;;;;
2020/03/29 03:03:17;;;;;;;31.1;21.9;;;;;;;4.9;65.85645;95035.5;;;;
2020/03/29 03:04:21;;;;;;;31.1;21.9;;;;;;;4.9;65.85645;95035.5;;;;
2020/03/29 03:05:36;;;;;;;31.1;21.9;;;;;;;4.9;65.85645;95035.5;;;;
2020/03/29 03:06:46;;;;;;;31.1;21.9;;;;;;;4.9;65.85645;95035.5;;;;
2020/03/29 03:07:53;;;;;;;31.1;21.9;;;;;;;4.9;65.85645;95035.5;;;;
2020/03/29 03:08:59;;;;;;;31.1;21.9;;;;;;;4.9;65.85645;95035.5;;;;
2020/03/29 03:09:59;;;;;;;31.1;21.9;;;;;;;4.9;65.85645;95035.5;;;;
2020/03/29 03:12:05;;;;;;;31.1;21.9;;;;;;;4.9;65.85645;95035.5;;;;
2020/03/29 03:13:13;;;;;;;31.05;22.45;;;;;;;4.78;65.22363;95041.97;;;;
2020/03/29 03:14:17;;;;;;;31.05;22.45;;;;;;;4.78;65.22363;95041.97;;;;
2020/03/29 03:15:25;;;;;;;33.5;23.1;;;;;;;4.82;66.06641;95036.11;;;;
2020/03/29 03:16:51;;;;;;;33.5;23.1;;;;;;;4.82;66.06641;95036.11;;;;
2020/03/29 03:17:53;;;;;;;33.5;23.1;;;;;;;4.82;66.06641;95036.11;;;;
2020/03/29 03:18:54;;;;;;;33.5;23.1;;;;;;;4.82;66.06641;95036.11;;;;
2020/03/29 03:20:05;;;;;;;33.5;23.1;;;;;;;4.82;66.06641;95036.11;;;;
2020/03/29 03:21:23;;;;;;;33.5;23.1;;;;;;;4.82;66.06641;95036.11;;;;
2020/03/29 03:22:29;;;;;;;33.5;23.1;;;;;;;4.82;66.06641;95036.11;;;;
2020/03/29 03:23:32;;;;;;;33.5;23.1;;;;;;;4.82;66.06641;95036.11;;;;
2020/03/29 03:24:32;;;;;;;33.5;23.1;;;;;;;4.82;66.06641;95036.11;;;;
2020/03/29 03:25:34;;;;;;;33.5;23.1;;;;;;;4.82;66.06641;95036.11;;;;
2020/03/29 03:26:39;;;;;;;32.65;22.35;;;;;;;4.68;65.29297;95034.06;;;;
2020/03/29 03:27:45;;;;;;;32.65;22.35;;;;;;;4.68;65.29297;95034.06;;;;
2020/03/29 03:28:55;;;;;;;30.1;23.1;;;;;;;4.69;66.18457;95047.22;;;;
2020/03/29 03:30:00;;;;;;;30.1;23.1;;;;;;;4.69;66.18457;95047.22;;;;
2020/03/29 03:31:08;;;;;;;30.1;23.1;;;;;;;4.69;66.18457;95047.22;;;;
2020/03/29 03:32:13;;;;;;;30.1;23.1;;;;;;;4.69;66.18457;95047.22;;;;
2020/03/29 03:33:14;;;;;;;30.1;23.1;;;;;;;4.69;66.18457;95047.22;;;;
2020/03/29 03:34:20;;;;;;;30.1;23.1;;;;;;;4.69;66.18457;95047.22;;;;
2020/03/29 03:35:22;;;;;;;30.1;23.1;;;;;;;4.69;66.18457;95047.22;;;;
2020/03/29 03:36:24;;;;;;;30.1;23.1;;;;;;;4.69;66.18457;95047.22;;;;
2020/03/29 03:37:25;;;;;;;30.1;23.1;;;;;;;4.69;66.18457;95047.22;;;;
2020/03/29 03:38:25;;;;;;;30.1;23.1;;;;;;;4.69;66.18457;95047.22;;;;
2020/03/29 03:39:26;;;;;;;34.35;22;;;;;;;4.4;65.60059;95043.2;;;;
2020/03/29 03:40:55;;;;;;;34.35;22;;;;;;;4.4;65.60059;95043.2;;;;
2020/03/29 03:42:00;;;;;;;30.35;22.8;;;;;;;4.38;66.63281;95048.85;;;;
2020/03/29 03:43:01;;;;;;;30.35;22.8;;;;;;;4.38;66.63281;95048.85;;;;
2020/03/29 03:44:04;;;;;;;30.35;22.8;;;;;;;4.38;66.63281;95048.85;;;;
2020/03/29 03:45:05;;;;;;;30.35;22.8;;;;;;;4.38;66.63281;95048.85;;;;
2020/03/29 03:46:13;;;;;;;30.35;22.8;;;;;;;4.38;66.63281;95048.85;;;;
2020/03/29 03:47:18;;;;;;;30.35;22.8;;;;;;;4.38;66.63281;95048.85;;;;
2020/03/29 03:48:23;;;;;;;30.35;22.8;;;;;;;4.38;66.63281;95048.85;;;;
2020/03/29 03:49:28;;;;;;;30.35;22.8;;;;;;;4.38;66.63281;95048.85;;;;
2020/03/29 03:50:28;;;;;;;30.35;22.8;;;;;;;4.38;66.63281;95048.85;;;;
2020/03/29 03:51:29;;;;;;;30.35;22.8;;;;;;;4.38;66.63281;95048.85;;;;
2020/03/29 03:53:36;;;;;;;33.40001;23.15;;;;;;;4.02;66.12402;95047.86;;;;
2020/03/29 03:54:48;;;;;;;33.40001;23.15;;;;;;;4.02;66.12402;95047.86;;;;
2020/03/29 03:55:49;;;;;;;33.40001;23.15;;;;;;;4.02;66.12402;95047.86;;;;
2020/03/29 03:56:57;;;;;;;33.40001;23.15;;;;;;;4.02;66.12402;95047.86;;;;
2020/03/29 03:57:58;;;;;;;33.40001;23.15;;;;;;;4.02;66.12402;95047.86;;;;
2020/03/29 03:58:58;;;;;;;33.40001;23.15;;;;;;;4.02;66.12402;95047.86;;;;
2020/03/29 04:00:02;;;;;;;33.40001;23.15;;;;;;;4.02;66.12402;95047.86;;;;
2020/03/29 04:01:37;;;;;;;33.40001;23.15;;;;;;;4.02;66.12402;95047.86;;;;
2020/03/29 04:02:45;;;;;;;33.40001;23.15;;;;;;;4.02;66.12402;95047.86;;;;
2020/03/29 04:03:46;;;;;;;36.2;24.3;;;;;;;3.65;66.1084;95056.76;;;;
2020/03/29 04:04:47;;;;;;;36.2;24.3;;;;;;;3.65;66.1084;95056.76;;;;
2020/03/29 04:05:49;;;;;;;36.2;24.3;;;;;;;3.65;66.1084;95056.76;;;;
2020/03/29 04:06:49;;;;;;;36.2;24.3;;;;;;;3.65;66.1084;95056.76;;;;
2020/03/29 04:07:56;;;;;;;36.2;24.3;;;;;;;3.65;66.1084;95056.76;;;;
2020/03/29 04:08:56;;;;;;;36.2;24.3;;;;;;;3.65;66.1084;95056.76;;;;
2020/03/29 04:09:57;;;;;;;36.2;24.3;;;;;;;3.65;66.1084;95056.76;;;;
2020/03/29 04:11:06;;;;;;;36.2;24.3;;;;;;;3.65;66.1084;95056.76;;;;
2020/03/29 04:12:10;;;;;;;36.2;24.3;;;;;;;3.65;66.1084;95056.76;;;;
2020/03/29 04:13:12;;;;;;;36.2;24.3;;;;;;;3.65;66.1084;95056.76;;;;
2020/03/29 04:14:13;;;;;;;32.5;23.85;;;;;;;3.36;66.22363;95073.07;;;;
2020/03/29 04:15:14;;;;;;;32.5;23.85;;;;;;;3.36;66.22363;95073.07;;;;
2020/03/29 04:16:19;;;;;;;32.5;23.85;;;;;;;3.36;66.22363;95073.07;;;;
2020/03/29 04:17:26;;;;;;;32.5;23.85;;;;;;;3.36;66.22363;95073.07;;;;
2020/03/29 04:18:29;;;;;;;32.5;23.85;;;;;;;3.36;66.22363;95073.07;;;;
2020/03/29 04:19:30;;;;;;;32.5;23.85;;;;;;;3.36;66.22363;95073.07;;;;
2020/03/29 04:20:31;;;;;;;32.5;23.85;;;;;;;3.36;66.22363;95073.07;;;;
2020/03/29 04:21:34;;;;;;;32.5;23.85;;;;;;;3.36;66.22363;95073.07;;;;
2020/03/29 04:22:34;;;;;;;32.5;23.85;;;;;;;3.36;66.22363;95073.07;;;;
2020/03/29 04:23:36;;;;;;;32.5;23.85;;;;;;;3.36;66.22363;95073.07;;;;
2020/03/29 04:24:41;;;;;;;36.35;26.45;;;;;;;3.28;66.25098;95072.38;;;;
2020/03/29 04:25:41;;;;;;;36.35;26.45;;;;;;;3.28;66.25098;95072.38;;;;
2020/03/29 04:26:44;;;;;;;36.35;26.45;;;;;;;3.28;66.25098;95072.38;;;;
2020/03/29 04:27:44;;;;;;;36.35;26.45;;;;;;;3.28;66.25098;95072.38;;;;
2020/03/29 04:28:47;;;;;;;36.35;26.45;;;;;;;3.28;66.25098;95072.38;;;;
2020/03/29 04:29:49;;;;;;;36.35;26.45;;;;;;;3.28;66.25098;95072.38;;;;
2020/03/29 04:30:49;;;;;;;36.35;26.45;;;;;;;3.28;66.25098;95072.38;;;;
2020/03/29 04:31:53;;;;;;;36.35;26.45;;;;;;;3.28;66.25098;95072.38;;;;
2020/03/29 04:32:54;;;;;;;36.35;26.45;;;;;;;3.28;66.25098;95072.38;;;;
2020/03/29 04:33:54;;;;;;;36.35;26.45;;;;;;;3.28;66.25098;95072.38;;;;
2020/03/29 04:34:55;;;;;;;37.45;26.6;;;;;;;3.23;66.20117;95070.31;;;;
2020/03/29 04:35:56;;;;;;;37.45;26.6;;;;;;;3.23;66.20117;95070.31;;;;
2020/03/29 04:36:59;;;;;;;37.45;26.6;;;;;;;3.23;66.20117;95070.31;;;;
2020/03/29 04:38:00;;;;;;;37.45;26.6;;;;;;;3.23;66.20117;95070.31;;;;
2020/03/29 04:39:01;;;;;;;37.45;26.6;;;;;;;3.23;66.20117;95070.31;;;;
2020/03/29 04:40:01;;;;;;;37.45;26.6;;;;;;;3.23;66.20117;95070.31;;;;
2020/03/29 04:41:04;;;;;;;37.45;26.6;;;;;;;3.23;66.20117;95070.31;;;;
2020/03/29 04:42:05;;;;;;;37.45;26.6;;;;;;;3.23;66.20117;95070.31;;;;
2020/03/29 04:43:05;;;;;;;37.45;26.6;;;;;;;3.23;66.20117;95070.31;;;;
2020/03/29 04:44:06;;;;;;;37.45;26.6;;;;;;;3.23;66.20117;95070.31;;;;
2020/03/29 04:45:07;;;;;;;37.45;26.6;;;;;;;3.23;66.20117;95070.31;;;;
2020/03/29 04:46:08;;;;;;;38.4;27.95;;;;;;;3.42;66.2832;95075.45;;;;
2020/03/29 04:47:09;;;;;;;38.4;27.95;;;;;;;3.42;66.2832;95075.45;;;;
2020/03/29 04:48:09;;;;;;;38.4;27.95;;;;;;;3.42;66.2832;95075.45;;;;
2020/03/29 04:49:10;;;;;;;38.4;27.95;;;;;;;3.42;66.2832;95075.45;;;;
2020/03/29 04:50:12;;;;;;;38.4;27.95;;;;;;;3.42;66.2832;95075.45;;;;
2020/03/29 04:51:13;;;;;;;38.4;27.95;;;;;;;3.42;66.2832;95075.45;;;;
2020/03/29 04:52:14;;;;;;;38.4;27.95;;;;;;;3.42;66.2832;95075.45;;;;
2020/03/29 04:53:15;;;;;;;38.4;27.95;;;;;;;3.42;66.2832;95075.45;;;;
2020/03/29 04:54:16;;;;;;;38.4;27.95;;;;;;;3.42;66.2832;95075.45;;;;
2020/03/29 04:55:16;;;;;;;38.4;27.95;;;;;;;3.42;66.2832;95075.45;;;;
2020/03/29 04:56:17;;;;;;;40.25;28.95;;;;;;;3.63;65.8418;95075.76;;;;
2020/03/29 04:57:17;;;;;;;40.25;28.95;;;;;;;3.63;65.8418;95075.76;;;;
2020/03/29 04:58:18;;;;;;;40.25;28.95;;;;;;;3.63;65.8418;95075.76;;;;
2020/03/29 04:59:20;;;;;;;38.75;29.9;;;;;;;3.75;66.8418;95082.59;;;;
2020/03/29 05:00:20;;;;;;;38.75;29.9;;;;;;;3.75;66.8418;95082.59;;;;
2020/03/29 05:01:27;;;;;;;38.75;29.9;;;;;;;3.75;66.8418;95082.59;;;;
2020/03/29 05:02:29;;;;;;;38.75;29.9;;;;;;;3.75;66.8418;95082.59;;;;
2020/03/29 05:03:29;;;;;;;38.75;29.9;;;;;;;3.75;66.8418;95082.59;;;;
2020/03/29 05:04:34;;;;;;;38.75;29.9;;;;;;;3.75;66.8418;95082.59;;;;
2020/03/29 05:05:35;;;;;;;38.75;29.9;;;;;;;3.75;66.8418;95082.59;;;;
2020/03/29 05:06:36;;;;;;;38.75;29.9;;;;;;;3.75;66.8418;95082.59;;;;
2020/03/29 05:07:37;;;;;;;38.75;29.9;;;;;;;3.75;66.8418;95082.59;;;;
2020/03/29 05:08:38;;;;;;;38.75;29.9;;;;;;;3.75;66.8418;95082.59;;;;
2020/03/29 05:09:38;;;;;;;38.7;28.95;;;;;;;3.96;66.21875;95083.91;;;;
2020/03/29 05:10:41;;;;;;;38.7;28.95;;;;;;;3.96;66.21875;95083.91;;;;
2020/03/29 05:11:42;;;;;;;38.7;28.95;;;;;;;3.96;66.21875;95083.91;;;;
2020/03/29 05:12:43;;;;;;;38.7;28.95;;;;;;;3.96;66.21875;95083.91;;;;
2020/03/29 05:13:43;;;;;;;38.7;28.95;;;;;;;3.96;66.21875;95083.91;;;;
2020/03/29 05:14:44;;;;;;;38.7;28.95;;;;;;;3.96;66.21875;95083.91;;;;
2020/03/29 05:15:44;;;;;;;38.7;28.95;;;;;;;3.96;66.21875;95083.91;;;;
2020/03/29 05:16:48;;;;;;;38.7;28.95;;;;;;;3.96;66.21875;95083.91;;;;
2020/03/29 05:17:49;;;;;;;38.7;28.95;;;;;;;3.96;66.21875;95083.91;;;;
2020/03/29 05:18:50;;;;;;;38.7;28.95;;;;;;;3.96;66.21875;95083.91;;;;
2020/03/29 05:19:52;;;;;;;39.65;29.5;;;;;;;4.19;65.7998;95075.03;;;;
2020/03/29 05:20:53;;;;;;;39.65;29.5;;;;;;;4.19;65.7998;95075.03;;;;
2020/03/29 05:21:57;;;;;;;39.65;29.5;;;;;;;4.19;65.7998;95075.03;;;;
2020/03/29 05:22:57;;;;;;;39.65;29.5;;;;;;;4.19;65.7998;95075.03;;;;
2020/03/29 05:23:58;;;;;;;39.65;29.5;;;;;;;4.19;65.7998;95075.03;;;;
2020/03/29 05:24:58;;;;;;;39.65;29.5;;;;;;;4.19;65.7998;95075.03;;;;
2020/03/29 05:25:59;;;;;;;39.65;29.5;;;;;;;4.19;65.7998;95075.03;;;;
2020/03/29 05:27:00;;;;;;;39.65;29.5;;;;;;;4.19;65.7998;95075.03;;;;
2020/03/29 05:28:00;;;;;;;39.65;29.5;;;;;;;4.19;65.7998;95075.03;;;;
2020/03/29 05:29:01;;;;;;;39.65;29.5;;;;;;;4.19;65.7998;95075.03;;;;
2020/03/29 05:30:02;;;;;;;39.65;29.5;;;;;;;4.19;65.7998;95075.03;;;;
2020/03/29 05:31:16;;;;;;;39.6;29.25;;;;;;;4.32;65.41895;95087.07;;;;
2020/03/29 05:32:17;;;;;;;39.6;29.25;;;;;;;4.32;65.41895;95087.07;;;;
2020/03/29 05:33:18;;;;;;;39.6;29.25;;;;;;;4.32;65.41895;95087.07;;;;
2020/03/29 05:34:19;;;;;;;39.6;29.25;;;;;;;4.32;65.41895;95087.07;;;;
2020/03/29 05:35:19;;;;;;;39.6;29.25;;;;;;;4.32;65.41895;95087.07;;;;
2020/03/29 05:36:20;;;;;;;39.6;29.25;;;;;;;4.32;65.41895;95087.07;;;;
2020/03/29 05:37:20;;;;;;;39.6;29.25;;;;;;;4.32;65.41895;95087.07;;;;
2020/03/29 05:38:21;;;;;;;39.6;29.25;;;;;;;4.32;65.41895;95087.07;;;;
2020/03/29 05:39:22;;;;;;;39.6;29.25;;;;;;;4.32;65.41895;95087.07;;;;
2020/03/29 05:40:26;;;;;;;39.6;29.25;;;;;;;4.32;65.41895;95087.07;;;;
2020/03/29 05:41:27;;;;;;;37;28.5;;;;;;;4.53;65.11133;95102.96;;;;
2020/03/29 05:42:28;;;;;;;37;28.5;;;;;;;4.53;65.11133;95102.96;;;;
2020/03/29 05:43:28;;;;;;;37;28.5;;;;;;;4.53;65.11133;95102.96;;;;
2020/03/29 05:44:28;;;;;;;37;28.5;;;;;;;4.53;65.11133;95102.96;;;;
2020/03/29 05:45:29;;;;;;;37;28.5;;;;;;;4.53;65.11133;95102.96;;;;
2020/03/29 05:46:31;;;;;;;37;28.5;;;;;;;4.53;65.11133;95102.96;;;;
2020/03/29 05:47:32;;;;;;;37;28.5;;;;;;;4.53;65.11133;95102.96;;;;
2020/03/29 05:48:37;;;;;;;37;28.5;;;;;;;4.53;65.11133;95102.96;;;;
2020/03/29 05:49:41;;;;;;;37;28.5;;;;;;;4.53;65.11133;95102.96;;;;
2020/03/29 05:55:56;;;;;;;40.65;31;;;;;;;4.75;65.66406;95100.81;;;;
2020/03/29 05:56:57;;;;;;;40.65;31;;;;;;;4.75;65.66406;95100.81;;;;
2020/03/29 05:57:58;;;;;;;40.65;31;;;;;;;4.75;65.66406;95100.81;;;;
2020/03/29 05:58:58;;;;;;;40.65;31;;;;;;;4.75;65.66406;95100.81;;;;
2020/03/29 05:59:59;;;;;;;40.65;31;;;;;;;4.75;65.66406;95100.81;;;;
2020/03/29 06:01:00;;;;;;;40.65;31;;;;;;;4.75;65.66406;95100.81;;;;
2020/03/29 06:02:01;;;;;;;40.65;31;;;;;;;4.75;65.66406;95100.81;;;;
2020/03/29 06:03:03;;;;;;;40.65;31;;;;;;;4.75;65.66406;95100.81;;;;
2020/03/29 06:04:04;;;;;;;40.65;31;;;;;;;4.75;65.66406;95100.81;;;;
2020/03/29 06:05:05;;;;;;;40.1;29.8;;;;;;;4.89;65.04883;95098.07;;;;
2020/03/29 06:06:06;;;;;;;40.1;29.8;;;;;;;4.89;65.04883;95098.07;;;;
2020/03/29 06:07:07;;;;;;;40.1;29.8;;;;;;;4.89;65.04883;95098.07;;;;
2020/03/29 06:08:07;;;;;;;40.1;29.8;;;;;;;4.89;65.04883;95098.07;;;;
2020/03/29 06:09:08;;;;;;;40.1;29.8;;;;;;;4.89;65.04883;95098.07;;;;
2020/03/29 06:10:14;;;;;;;40.1;29.8;;;;;;;4.89;65.04883;95098.07;;;;
2020/03/29 06:11:14;;;;;;;40.1;29.8;;;;;;;4.89;65.04883;95098.07;;;;
2020/03/29 06:12:15;;;;;;;40.1;29.8;;;;;;;4.89;65.04883;95098.07;;;;
2020/03/29 06:13:15;;;;;;;40.1;29.8;;;;;;;4.89;65.04883;95098.07;;;;
2020/03/29 06:14:16;;;;;;;40.1;29.8;;;;;;;4.89;65.04883;95098.07;;;;
2020/03/29 06:15:17;;;;;;;40.1;29.8;;;;;;;4.89;65.04883;95098.07;;;;
2020/03/29 06:16:17;;;;;;;38.65;29;;;;;;;5.07;64.72852;95105.88;;;;
2020/03/29 06:17:18;;;;;;;38.65;29;;;;;;;5.07;64.72852;95105.88;;;;
2020/03/29 06:18:18;;;;;;;38.65;29;;;;;;;5.07;64.72852;95105.88;;;;
2020/03/29 06:19:19;;;;;;;38.65;29;;;;;;;5.07;64.72852;95105.88;;;;
2020/03/29 06:20:19;;;;;;;38.65;29;;;;;;;5.07;64.72852;95105.88;;;;
2020/03/29 06:21:20;;;;;;;38.65;29;;;;;;;5.07;64.72852;95105.88;;;;
2020/03/29 06:22:20;;;;;;;38.65;29;;;;;;;5.07;64.72852;95105.88;;;;
2020/03/29 06:23:21;;;;;;;38.65;29;;;;;;;5.07;64.72852;95105.88;;;;
2020/03/29 06:24:21;;;;;;;38.65;29;;;;;;;5.07;64.72852;95105.88;;;;
2020/03/29 06:25:21;;;;;;;38.65;29;;;;;;;5.07;64.72852;95105.88;;;;
2020/03/29 06:26:24;;;;;;;38.25;28.45;;;;;;;5.21;64.41016;95115.03;;;;
2020/03/29 06:27:41;;;;;;;38.25;28.45;;;;;;;5.21;64.41016;95115.03;;;;
2020/03/29 06:28:42;;;;;;;38.25;28.45;;;;;;;5.21;64.41016;95115.03;;;;
2020/03/29 06:29:42;;;;;;;37.55;29.15;;;;;;;5.32;64.9873;95111.7;;;;
2020/03/29 06:30:43;;;;;;;37.55;29.15;;;;;;;5.32;64.9873;95111.7;;;;
2020/03/29 06:31:43;;;;;;;37.55;29.15;;;;;;;5.32;64.9873;95111.7;;;;
2020/03/29 06:32:44;;;;;;;37.55;29.15;;;;;;;5.32;64.9873;95111.7;;;;
2020/03/29 06:33:44;;;;;;;37.55;29.15;;;;;;;5.32;64.9873;95111.7;;;;
2020/03/29 06:34:45;;;;;;;37.55;29.15;;;;;;;5.32;64.9873;95111.7;;;;
2020/03/29 06:35:45;;;;;;;37.55;29.15;;;;;;;5.32;64.9873;95111.7;;;;
2020/03/29 06:36:47;;;;;;;37.55;29.15;;;;;;;5.32;64.9873;95111.7;;;;
2020/03/29 06:37:48;;;;;;;37.55;29.15;;;;;;;5.32;64.9873;95111.7;;;;
2020/03/29 06:38:49;;;;;;;37.55;29.15;;;;;;;5.32;64.9873;95111.7;;;;
2020/03/29 06:39:50;;;;;;;37.65;27.75;;;;;;;5.52;64.22363;95120.11;;;;
2020/03/29 06:40:50;;;;;;;37.65;27.75;;;;;;;5.52;64.22363;95120.11;;;;
2020/03/29 06:41:51;;;;;;;37.65;27.75;;;;;;;5.52;64.22363;95120.11;;;;
2020/03/29 06:42:53;;;;;;;35.75;28.05;;;;;;;5.63;64.64063;95124.95;;;;
2020/03/29 06:43:58;;;;;;;35.75;28.05;;;;;;;5.63;64.64063;95124.95;;;;
2020/03/29 06:44:58;;;;;;;35.75;28.05;;;;;;;5.63;64.64063;95124.95;;;;
2020/03/29 06:45:59;;;;;;;35.75;28.05;;;;;;;5.63;64.64063;95124.95;;;;
2020/03/29 06:46:59;;;;;;;35.75;28.05;;;;;;;5.63;64.64063;95124.95;;;;
2020/03/29 06:48:00;;;;;;;35.75;28.05;;;;;;;5.63;64.64063;95124.95;;;;
2020/03/29 06:49:00;;;;;;;35.75;28.05;;;;;;;5.63;64.64063;95124.95;;;;
2020/03/29 06:50:01;;;;;;;35.75;28.05;;;;;;;5.63;64.64063;95124.95;;;;
2020/03/29 06:51:03;;;;;;;35.75;28.05;;;;;;;5.63;64.64063;95124.95;;;;
2020/03/29 06:52:09;;;;;;;35.75;28.05;;;;;;;5.63;64.64063;95124.95;;;;
2020/03/29 06:53:23;;;;;;;35.2;26.95;;;;;;;5.82;63.94824;95138.81;;;;
2020/03/29 06:57:00;;;;;;;35.2;26.95;;;;;;;5.82;63.94824;95138.81;;;;
2020/03/29 06:58:08;;;;;;;35.2;26.95;;;;;;;5.82;63.94824;95138.81;;;;
2020/03/29 06:59:12;;;;;;;35.2;26.95;;;;;;;5.82;63.94824;95138.81;;;;
2020/03/29 07:00:17;;;;;;;35.2;26.95;;;;;;;5.82;63.94824;95138.81;;;;
2020/03/29 07:01:39;;;;;;;35.2;26.95;;;;;;;5.82;63.94824;95138.81;;;;
2020/03/29 07:02:41;;;;;;;35.2;26.95;;;;;;;5.82;63.94824;95138.81;;;;
2020/03/29 07:03:41;;;;;;;34.7;25.65;;;;;;;6.07;63.53809;95144.73;;;;
2020/03/29 07:04:44;;;;;;;34.7;25.65;;;;;;;6.07;63.53809;95144.73;;;;
2020/03/29 07:05:45;;;;;;;34.7;25.65;;;;;;;6.07;63.53809;95144.73;;;;
2020/03/29 07:08:17;;;;;;;34.7;25.65;;;;;;;6.07;63.53809;95144.73;;;;
2020/03/29 07:09:18;;;;;;;34.7;25.65;;;;;;;6.07;63.53809;95144.73;;;;
2020/03/29 07:11:57;;;;;;;34.7;25.65;;;;;;;6.07;63.53809;95144.73;;;;
2020/03/29 07:13:59;;;;;;;34;25.35;;;;;;;6.21;63.08105;95145.4;;;;
2020/03/29 07:17:13;;;;;;;34;25.35;;;;;;;6.21;63.08105;95145.4;;;;
2020/03/29 07:25:26;;;;;;;39.4;25.05;;;;;;;6.57;62.6543;95155.54;;;;
2020/03/29 07:34:50;;;;;;;39.4;25.05;;;;;;;6.57;62.6543;95155.54;;;;
2020/03/29 07:44:13;;;;;;;33.05;26.35;;;;;;;8.4;60.33496;95156.55;;;;
2020/03/29 07:53:36;;;;;;;30.75;25.7;;;;;;;10.35;57.00586;95163.96;;;;
2020/03/29 08:02:59;;;;;;;30.05;25.25;;;;;;;11.18;54.61621;95168.33;;;;
2020/03/29 08:12:22;;;;;;;28.5;24.35;;;;;;;10.33;55.31543;95176.45;;;;
2020/03/29 08:21:46;;;;;;;28.5;24.35;;;;;;;10.33;55.31543;95176.45;;;;
2020/03/29 08:31:09;;;;;;;30.8;24.9;;;;;;;9.8;55.78516;95177.51;;;;
2020/03/29 08:40:32;;;;;;;28.6;23.85;;;;;;;9.72;55.37793;95171.51;;;;
2020/03/29 08:45:45;;;;;;;28.6;24.7;;;;;;;10.1;54.4375;95172.44;;;;
2020/03/29 08:55:29;;;;;;;27.8;24.6;;;;;;;10.61;53.05762;95181.94;;;;
2020/03/29 09:04:51;;;;;;;27.8;24.6;;;;;;;10.61;53.05762;95181.94;;;;
2020/03/29 09:14:14;;;;;;;31.8;25;;;;;;;10.26;53.34863;95173.07;;;;
2020/03/29 09:23:38;;;;;;;29.05;24.6;;;;;;;9.73;53.91797;95178.56;;;;
2020/03/29 09:33:01;;;;;;;33.5;24.85;;;;;;;9.77;53.97559;95177.58;;;;
2020/03/29 09:42:24;;;;;;;33.5;24.85;;;;;;;9.77;53.97559;95177.58;;;;
2020/03/29 09:51:47;;;;;;;30.2;24.6;;;;;;;10.45;52.94141;95181.33;;;;
2020/03/29 10:01:10;;;;;;;29;24.35;;;;;;;10.54;52.8457;95175.85;;;;
2020/03/29 10:10:34;;;;;;;29.75;24.85;;;;;;;10.93;52.01953;95182.72;;;;
2020/03/29 10:19:57;;;;;;;29.25;24.35;;;;;;;11.13;51.80566;95176.36;;;;
2020/03/29 10:20:58;;;;;;;29.25;24.35;;;;;;;11.13;51.80566;95176.36;;;;
2020/03/29 10:21:59;;;;;;;29.25;24.35;;;;;;;11.13;51.80566;95176.36;;;;
2020/03/29 10:22:59;;;;;;;27.7;24.7;;;;;;;11.31;51.20117;95166.28;;;;
2020/03/29 10:24:00;;;;;;;27.7;24.7;;;;;;;11.31;51.20117;95166.28;;;;
2020/03/29 10:25:00;;;;;;;27.7;24.7;;;;;;;11.31;51.20117;95166.28;;;;
2020/03/29 10:26:00;;;;;;;28.4;24.2;;;;;;;11.51;50.95508;95175.69;;;;
2020/03/29 10:27:04;;;;;;;28.4;24.2;;;;;;;11.51;50.95508;95175.69;;;;
2020/03/29 10:28:06;;;;;;;28.4;24.2;;;;;;;11.51;50.95508;95175.69;;;;
2020/03/29 10:29:08;;;;;;;28.4;24.2;;;;;;;11.51;50.95508;95175.69;;;;
2020/03/29 10:30:08;;;;;;;28.4;24.2;;;;;;;11.51;50.95508;95175.69;;;;
2020/03/29 10:31:09;;;;;;;28.4;24.2;;;;;;;11.51;50.95508;95175.69;;;;
2020/03/29 10:32:10;;;;;;;28.4;24.2;;;;;;;11.51;50.95508;95175.69;;;;